createdAt,value
2018-05-07T00:02:10.835Z,73.40
2018-05-07T00:04:38.429Z,73.50
2018-05-07T00:07:06.151Z,73.80
2018-05-07T00:09:34.252Z,73.80
2018-05-07T00:12:01.942Z,74.10
2018-05-07T00:14:29.486Z,74.30
2018-05-07T00:16:57.058Z,74.30
2018-05-07T00:19:25.610Z,74.70
2018-05-07T00:21:53.875Z,74.80
2018-05-07T00:24:21.538Z,75.00
2018-05-07T00:26:49.277Z,75.00
2018-05-07T00:29:16.877Z,75.20
2018-05-07T00:31:45.369Z,75.60
2018-05-07T00:34:12.932Z,76.00
2018-05-07T00:36:41.588Z,76.40
2018-05-07T00:39:09.779Z,76.70
2018-05-07T00:41:37.665Z,76.80
2018-05-07T00:44:05.797Z,77.00
2018-05-07T00:46:33.328Z,77.00
2018-05-07T00:49:01.030Z,77.00
2018-05-07T00:51:29.529Z,77.30
2018-05-07T00:53:57.802Z,77.20
2018-05-07T00:56:25.687Z,77.30
2018-05-07T00:58:54.032Z,77.50
2018-05-07T01:01:21.792Z,77.50
2018-05-07T01:03:49.350Z,77.60
2018-05-07T01:06:16.878Z,77.70
2018-05-07T01:08:44.998Z,77.90
2018-05-07T01:11:13.514Z,77.90
2018-05-07T01:13:41.030Z,78.20
2018-05-07T01:16:09.098Z,78.30
2018-05-07T01:18:37.461Z,78.60
2018-05-07T01:21:04.991Z,78.70
2018-05-07T01:23:32.595Z,78.90
2018-05-07T01:26:00.124Z,78.80
2018-05-07T01:28:28.400Z,79.20
2018-05-07T01:30:56.810Z,79.10
2018-05-07T01:33:24.797Z,79.10
2018-05-07T01:35:52.936Z,79.40
2018-05-07T01:38:20.718Z,79.60
2018-05-07T01:40:48.944Z,79.90
2018-05-07T01:43:17.726Z,80.00
2018-05-07T01:45:46.730Z,79.90
2018-05-07T01:48:14.519Z,80.40
2018-05-07T01:50:42.047Z,80.40
2018-05-07T01:53:09.746Z,80.70
2018-05-07T01:55:38.186Z,81.20
2018-05-07T01:58:05.720Z,81.20
2018-05-07T02:00:33.455Z,81.30
2018-05-07T02:03:01.113Z,81.40
2018-05-07T02:05:29.550Z,81.80
2018-05-07T02:07:57.113Z,81.70
2018-05-07T02:10:25.457Z,82.00
2018-05-07T02:12:53.404Z,82.00
2018-05-07T02:15:20.954Z,82.10
2018-05-07T02:17:48.908Z,82.20
2018-05-07T02:20:17.213Z,83.20
2018-05-07T02:22:45.496Z,82.30
2018-05-07T02:25:13.007Z,82.60
2018-05-07T02:27:40.561Z,82.70
2018-05-07T02:30:08.061Z,82.70
2018-05-07T02:32:35.727Z,82.90
2018-05-07T02:35:03.245Z,83.00
2018-05-07T02:37:31.371Z,83.20
2018-05-07T02:39:59.363Z,83.30
2018-05-07T02:42:26.886Z,83.30
2018-05-07T02:44:54.451Z,83.50
2018-05-07T02:47:22.400Z,83.70
2018-05-07T02:49:50.745Z,83.90
2018-05-07T02:52:18.326Z,83.80
2018-05-07T02:54:46.089Z,84.10
2018-05-07T02:57:13.802Z,84.20
2018-05-07T02:59:41.694Z,84.10
2018-05-07T03:02:09.680Z,84.40
2018-05-07T03:04:37.206Z,84.40
2018-05-07T03:07:04.756Z,84.50
2018-05-07T03:09:32.807Z,84.60
2018-05-07T03:12:00.345Z,84.60
2018-05-07T03:14:30.866Z,84.70
2018-05-07T03:16:58.394Z,84.70
2018-05-07T03:19:27.309Z,85.00
2018-05-07T03:21:54.866Z,85.10
2018-05-07T03:24:23.345Z,85.20
2018-05-07T03:26:51.217Z,85.10
2018-05-07T03:29:18.799Z,85.20
2018-05-07T03:31:46.377Z,85.20
2018-05-07T03:34:13.905Z,85.40
2018-05-07T03:36:41.615Z,85.40
2018-05-07T03:39:09.134Z,85.20
2018-05-07T03:41:36.730Z,85.50
2018-05-07T03:44:04.339Z,85.70
2018-05-07T03:46:31.841Z,85.70
2018-05-07T03:48:59.369Z,85.40
2018-05-07T03:51:27.033Z,85.70
2018-05-07T03:53:55.319Z,85.20
2018-05-07T03:56:24.393Z,85.60
2018-05-07T03:58:53.643Z,84.80
2018-05-07T04:01:21.165Z,84.10
2018-05-07T04:03:49.029Z,84.20
2018-05-07T04:06:16.854Z,83.60
2018-05-07T04:08:45.022Z,83.30
2018-05-07T04:11:13.032Z,82.60
2018-05-07T04:13:40.562Z,81.80
2018-05-07T04:16:08.488Z,78.60
2018-05-07T04:18:47.692Z,71.20
2018-05-07T04:21:15.907Z,65.30
2018-05-07T04:23:55.279Z,58.80
2018-05-07T04:26:23.748Z,54.90
2018-05-07T04:28:51.297Z,51.40
2018-05-07T04:31:18.870Z,48.80
2018-05-07T04:33:46.588Z,46.50
2018-05-07T04:36:14.158Z,44.90
2018-05-07T04:38:42.479Z,40.70
2018-05-07T04:41:10.405Z,40.70
2018-05-07T04:43:37.936Z,38.80
2018-05-07T04:46:05.464Z,38.00
2018-05-07T04:48:33.650Z,36.60
2018-05-07T04:51:01.212Z,35.60
2018-05-07T04:53:28.718Z,34.80
2018-05-07T04:55:56.436Z,33.70
2018-05-07T04:58:24.764Z,31.80
2018-05-07T05:00:52.370Z,31.80
2018-05-07T05:03:20.597Z,30.80
2018-05-07T05:05:49.116Z,29.60
2018-05-07T05:08:16.713Z,29.50
2018-05-07T05:10:44.335Z,29.00
2018-05-07T05:13:12.681Z,27.70
2018-05-07T05:15:40.954Z,26.70
2018-05-07T05:18:08.478Z,26.70
2018-05-07T05:20:36.032Z,26.30
2018-05-07T05:23:05.234Z,26.00
2018-05-07T05:25:32.834Z,25.90
2018-05-07T05:28:01.188Z,24.60
2018-05-07T05:30:28.704Z,24.60
2018-05-07T05:32:57.625Z,24.10
2018-05-07T05:35:25.432Z,23.70
2018-05-07T05:37:52.974Z,23.70
2018-05-07T05:40:21.940Z,23.30
2018-05-07T05:42:49.682Z,23.30
2018-05-07T05:45:17.199Z,22.80
2018-05-07T05:47:45.828Z,22.40
2018-05-07T05:50:13.618Z,22.40
2018-05-07T05:52:41.894Z,22.40
2018-05-07T05:55:09.724Z,22.10
2018-05-07T05:57:37.304Z,21.80
2018-05-07T06:00:04.966Z,22.00
2018-05-07T06:02:32.659Z,21.50
2018-05-07T06:05:01.119Z,21.60
2018-05-07T06:07:28.757Z,20.90
2018-05-07T06:09:57.377Z,21.10
2018-05-07T06:12:24.954Z,20.80
2018-05-07T06:14:52.709Z,20.90
2018-05-07T06:17:20.911Z,20.80
2018-05-07T06:19:48.688Z,20.80
2018-05-07T06:22:16.360Z,20.60
2018-05-07T06:24:44.293Z,20.40
2018-05-07T06:27:12.698Z,20.50
2018-05-07T06:29:40.234Z,20.50
2018-05-07T06:32:09.122Z,20.80
2018-05-07T06:34:37.531Z,21.70
2018-05-07T06:37:05.229Z,21.40
2018-05-07T06:39:32.859Z,21.60
2018-05-07T06:42:00.366Z,21.50
2018-05-07T06:44:27.989Z,21.30
2018-05-07T06:46:55.628Z,21.10
2018-05-07T06:49:23.845Z,21.60
2018-05-07T06:51:51.592Z,21.80
2018-05-07T06:54:19.173Z,21.80
2018-05-07T06:56:46.726Z,21.80
2018-05-07T06:59:14.280Z,22.30
2018-05-07T07:01:41.823Z,22.20
2018-05-07T07:04:09.573Z,22.00
2018-05-07T07:06:37.149Z,22.00
2018-05-07T07:09:05.754Z,22.60
2018-05-07T07:11:34.190Z,22.60
2018-05-07T07:14:02.695Z,23.00
2018-05-07T07:16:31.337Z,23.10
2018-05-07T07:18:59.572Z,23.80
2018-05-07T07:21:27.179Z,23.70
2018-05-07T07:23:54.904Z,23.40
2018-05-07T07:26:22.486Z,24.30
2018-05-07T07:28:50.337Z,24.00
2018-05-07T07:31:18.262Z,24.30
2018-05-07T07:33:46.658Z,25.00
2018-05-07T07:36:14.564Z,25.00
2018-05-07T07:38:42.309Z,24.50
2018-05-07T07:41:10.266Z,25.10
2018-05-07T07:43:37.902Z,25.40
2018-05-07T07:46:06.539Z,24.60
2018-05-07T07:48:34.377Z,24.50
2018-05-07T07:51:02.061Z,24.60
2018-05-07T07:53:30.537Z,25.20
2018-05-07T07:55:58.112Z,25.30
2018-05-07T07:58:26.472Z,25.70
2018-05-07T08:00:54.223Z,26.50
2018-05-07T08:03:21.766Z,26.00
2018-05-07T08:05:49.503Z,26.70
2018-05-07T08:08:17.065Z,26.50
2018-05-07T08:10:45.037Z,26.70
2018-05-07T08:13:12.655Z,26.70
2018-05-07T08:15:40.260Z,27.50
2018-05-07T08:18:08.579Z,28.50
2018-05-07T08:20:36.103Z,28.50
2018-05-07T08:23:04.548Z,29.20
2018-05-07T08:25:32.304Z,29.20
2018-05-07T08:27:59.840Z,29.80
2018-05-07T08:30:27.598Z,30.20
2018-05-07T08:32:56.249Z,30.70
2018-05-07T08:35:24.013Z,30.70
2018-05-07T08:37:51.845Z,31.90
2018-05-07T08:40:19.435Z,32.50
2018-05-07T08:42:47.517Z,32.80
2018-05-07T08:45:16.419Z,34.40
2018-05-07T08:47:44.099Z,34.40
2018-05-07T08:50:13.131Z,35.80
2018-05-07T08:52:40.873Z,35.70
2018-05-07T08:55:09.274Z,36.20
2018-05-07T08:57:38.550Z,36.30
2018-05-07T09:00:06.201Z,36.60
2018-05-07T09:02:34.594Z,37.60
2018-05-07T09:05:02.465Z,37.60
2018-05-07T09:07:30.217Z,37.30
2018-05-07T09:09:58.017Z,37.60
2018-05-07T09:12:25.597Z,37.30
2018-05-07T09:14:53.700Z,37.90
2018-05-07T09:17:21.301Z,37.90
2018-05-07T09:19:49.256Z,38.30
2018-05-07T09:22:17.017Z,38.30
2018-05-07T09:24:45.822Z,38.60
2018-05-07T09:27:13.277Z,38.60
2018-05-07T09:29:40.787Z,38.90
2018-05-07T09:32:09.289Z,38.90
2018-05-07T09:34:36.986Z,39.70
2018-05-07T09:37:04.582Z,39.70
2018-05-07T09:39:33.013Z,40.00
2018-05-07T09:42:00.571Z,39.60
2018-05-07T09:44:28.275Z,40.10
2018-05-07T09:46:55.837Z,40.10
2018-05-07T09:49:23.779Z,40.50
2018-05-07T09:51:51.687Z,40.70
2018-05-07T09:54:19.199Z,40.80
2018-05-07T09:56:54.523Z,40.60
2018-05-07T09:59:22.037Z,41.20
2018-05-07T10:01:49.631Z,40.90
2018-05-07T10:04:18.470Z,41.60
2018-05-07T10:06:46.034Z,41.10
2018-05-07T10:09:14.176Z,41.50
2018-05-07T10:11:43.470Z,42.20
2018-05-07T10:14:11.777Z,42.00
2018-05-07T10:16:40.185Z,41.90
2018-05-07T10:19:07.979Z,41.60
2018-05-07T10:24:17.672Z,41.60
2018-05-07T10:26:45.318Z,41.90
2018-05-07T10:29:14.154Z,40.50
2018-05-07T10:31:41.908Z,39.50
2018-05-07T10:34:09.436Z,39.90
2018-05-07T10:36:37.056Z,40.40
2018-05-07T10:39:04.648Z,39.50
2018-05-07T10:41:32.967Z,38.70
2018-05-07T10:44:00.628Z,38.60
2018-05-07T10:46:29.046Z,38.50
2018-05-07T10:48:56.704Z,39.10
2018-05-07T10:51:24.648Z,38.40
2018-05-07T10:53:52.291Z,38.30
2018-05-07T10:56:20.333Z,39.00
2018-05-07T10:58:48.026Z,39.90
2018-05-07T11:01:15.557Z,39.90
2018-05-07T11:03:44.557Z,39.60
2018-05-07T11:06:12.353Z,39.50
2018-05-07T11:08:39.876Z,39.70
2018-05-07T11:11:07.431Z,40.60
2018-05-07T11:13:36.958Z,41.00
2018-05-07T11:16:04.978Z,41.00
2018-05-07T11:18:32.784Z,41.20
2018-05-07T11:21:00.470Z,41.40
2018-05-07T11:23:28.018Z,41.50
2018-05-07T11:25:55.627Z,41.50
2018-05-07T11:28:23.155Z,41.60
2018-05-07T11:30:51.922Z,41.90
2018-05-07T11:33:19.479Z,41.70
2018-05-07T11:35:47.756Z,42.10
2018-05-07T11:38:16.055Z,42.00
2018-05-07T11:40:43.622Z,42.00
2018-05-07T11:43:11.187Z,41.80
2018-05-07T11:45:38.735Z,42.10
2018-05-07T11:48:07.260Z,41.90
2018-05-07T11:50:35.710Z,42.00
2018-05-07T11:53:04.027Z,42.00
2018-05-07T11:55:33.687Z,43.20
2018-05-07T11:58:01.221Z,42.60
2018-05-07T12:00:29.413Z,42.60
2018-05-07T12:02:57.092Z,42.50
2018-05-07T12:05:24.619Z,42.60
2018-05-07T12:07:52.871Z,42.20
2018-05-07T12:10:20.496Z,41.70
2018-05-07T12:12:48.027Z,42.30
2018-05-07T12:15:15.700Z,42.80
2018-05-07T12:17:43.382Z,43.20
2018-05-07T12:20:11.163Z,42.70
2018-05-07T12:22:40.692Z,42.80
2018-05-07T12:25:08.618Z,43.00
2018-05-07T12:27:36.795Z,43.10
2018-05-07T12:30:04.387Z,43.20
2018-05-07T12:32:32.207Z,42.30
2018-05-07T12:34:59.803Z,42.40
2018-05-07T12:37:27.528Z,43.50
2018-05-07T12:39:55.157Z,43.80
2018-05-07T12:42:23.489Z,43.30
2018-05-07T12:44:51.329Z,43.30
2018-05-07T12:47:18.865Z,43.30
2018-05-07T12:49:46.458Z,42.90
2018-05-07T12:52:14.008Z,43.20
2018-05-07T12:54:41.710Z,43.10
2018-05-07T12:57:09.350Z,43.00
2018-05-07T12:59:36.909Z,42.60
2018-05-07T13:02:05.317Z,42.50
2018-05-07T13:04:33.065Z,41.70
2018-05-07T13:07:00.692Z,42.00
2018-05-07T13:09:28.299Z,42.30
2018-05-07T13:11:55.862Z,41.60
2018-05-07T13:14:23.538Z,41.90
2018-05-07T13:16:51.072Z,42.10
2018-05-07T13:19:18.593Z,42.20
2018-05-07T13:21:47.040Z,42.60
2018-05-07T13:24:14.825Z,42.60
2018-05-07T13:26:42.628Z,42.50
2018-05-07T13:29:10.294Z,42.50
2018-05-07T13:31:38.770Z,42.70
2018-05-07T13:34:06.491Z,42.70
2018-05-07T13:36:34.099Z,42.70
2018-05-07T13:39:01.847Z,42.60
2018-05-07T13:41:30.112Z,43.00
2018-05-07T13:43:58.425Z,43.10
2018-05-07T13:46:26.097Z,43.10
2018-05-07T13:48:55.005Z,43.00
2018-05-07T13:51:22.853Z,43.00
2018-05-07T13:53:50.589Z,42.50
2018-05-07T13:56:18.099Z,42.30
2018-05-07T13:58:45.678Z,42.20
2018-05-07T14:01:13.233Z,41.80
2018-05-07T14:03:41.659Z,42.20
2018-05-07T14:06:09.322Z,40.90
2018-05-07T14:08:37.425Z,40.10
2018-05-07T14:11:04.919Z,39.70
2018-05-07T14:13:33.171Z,39.80
2018-05-07T14:16:00.870Z,39.50
2018-05-07T14:18:28.551Z,40.00
2018-05-07T14:20:56.402Z,40.30
2018-05-07T14:23:23.922Z,40.30
2018-05-07T14:25:51.449Z,40.30
2018-05-07T14:28:19.175Z,40.30
2018-05-07T14:30:49.555Z,40.40
2018-05-07T14:33:17.397Z,40.40
2018-05-07T14:35:44.970Z,40.80
2018-05-07T14:38:12.518Z,40.60
2018-05-07T14:40:40.504Z,40.60
2018-05-07T14:43:08.247Z,40.70
2018-05-07T14:45:36.026Z,40.70
2018-05-07T14:48:03.653Z,40.80
2018-05-07T14:50:31.207Z,40.80
2018-05-07T14:52:59.107Z,40.90
2018-05-07T14:55:26.657Z,41.10
2018-05-07T14:57:54.283Z,39.70
2018-05-07T15:00:21.934Z,39.40
2018-05-07T15:02:50.104Z,39.70
2018-05-07T15:05:18.491Z,39.70
2018-05-07T15:07:46.352Z,40.50
2018-05-07T15:10:14.179Z,40.00
2018-05-07T15:12:41.779Z,40.90
2018-05-07T15:15:09.606Z,41.00
2018-05-07T15:17:37.386Z,40.80
2018-05-07T15:20:04.953Z,40.70
2018-05-07T15:22:32.827Z,40.00
2018-05-07T15:25:00.448Z,39.70
2018-05-07T15:27:27.968Z,40.30
2018-05-07T15:29:56.290Z,41.00
2018-05-07T15:32:23.892Z,41.00
2018-05-07T15:34:51.412Z,41.10
2018-05-07T15:37:20.084Z,41.30
2018-05-07T15:39:48.572Z,41.10
2018-05-07T15:42:16.517Z,41.20
2018-05-07T15:44:47.306Z,41.40
2018-05-07T15:47:14.952Z,41.30
2018-05-07T15:49:43.927Z,40.40
2018-05-07T15:52:12.240Z,40.40
2018-05-07T15:54:41.644Z,40.00
2018-05-07T15:57:09.241Z,40.40
2018-05-07T15:59:37.620Z,40.30
2018-05-07T16:02:05.534Z,39.70
2018-05-07T16:04:33.913Z,39.50
2018-05-07T16:07:01.789Z,39.20
2018-05-07T16:09:31.078Z,39.00
2018-05-07T16:11:59.061Z,39.20
2018-05-07T16:14:27.243Z,38.80
2018-05-07T16:16:54.816Z,38.90
2018-05-07T16:19:22.403Z,37.90
2018-05-07T16:21:50.809Z,38.10
2018-05-07T16:24:19.101Z,37.30
2018-05-07T16:26:46.669Z,37.10
2018-05-07T16:29:15.244Z,37.00
2018-05-07T16:31:43.003Z,36.90
2018-05-07T16:34:10.576Z,36.90
2018-05-07T16:36:38.115Z,37.00
2018-05-07T16:39:05.784Z,37.20
2018-05-07T16:41:33.411Z,37.30
2018-05-07T16:44:01.113Z,37.00
2018-05-07T16:46:29.351Z,36.90
2018-05-07T16:48:56.986Z,37.40
2018-05-07T16:51:24.523Z,37.60
2018-05-07T16:53:52.133Z,37.30
2018-05-07T16:56:19.728Z,37.70
2018-05-07T16:58:47.311Z,37.90
2018-05-07T17:01:15.090Z,38.40
2018-05-07T17:03:43.832Z,38.50
2018-05-07T17:06:11.380Z,38.90
2018-05-07T17:08:39.556Z,39.10
2018-05-07T17:11:07.939Z,39.10
2018-05-07T17:13:35.478Z,39.00
2018-05-07T17:16:03.255Z,39.50
2018-05-07T17:18:31.000Z,39.70
2018-05-07T17:20:58.730Z,39.90
2018-05-07T17:23:26.399Z,39.80
2018-05-07T17:25:53.918Z,40.00
2018-05-07T17:28:22.730Z,39.70
2018-05-07T17:30:51.532Z,39.70
2018-05-07T17:33:19.089Z,40.10
2018-05-07T17:35:47.409Z,41.00
2018-05-07T17:38:14.968Z,40.50
2018-05-07T17:40:43.304Z,40.80
2018-05-07T17:43:10.963Z,40.80
2018-05-07T17:45:54.068Z,41.00
2018-05-07T17:48:33.806Z,41.10
2018-05-07T17:51:01.841Z,41.20
2018-05-07T17:53:29.860Z,41.10
2018-05-07T17:55:57.485Z,40.70
2018-05-07T17:58:25.934Z,40.90
2018-05-07T18:00:54.837Z,40.90
2018-05-07T18:03:22.764Z,41.30
2018-05-07T18:05:51.271Z,42.50
2018-05-07T18:08:18.969Z,41.90
2018-05-07T18:10:46.694Z,41.90
2018-05-07T18:13:14.249Z,42.10
2018-05-07T18:15:41.876Z,42.40
2018-05-07T18:18:09.628Z,42.60
2018-05-07T18:20:37.924Z,42.90
2018-05-07T18:23:05.517Z,42.90
2018-05-07T18:25:33.771Z,43.20
2018-05-07T18:28:01.340Z,43.30
2018-05-07T18:30:29.928Z,43.50
2018-05-07T18:32:58.456Z,43.90
2018-05-07T18:35:26.381Z,44.00
2018-05-07T18:37:54.842Z,44.40
2018-05-07T18:40:23.137Z,44.40
2018-05-07T18:42:51.977Z,44.60
2018-05-07T18:45:19.722Z,44.80
2018-05-07T18:47:47.554Z,45.10
2018-05-07T18:50:15.431Z,45.40
2018-05-07T18:52:42.977Z,45.40
2018-05-07T18:55:10.854Z,45.70
2018-05-07T18:57:39.305Z,45.80
2018-05-07T19:00:07.108Z,46.00
2018-05-07T19:02:34.850Z,46.30
2018-05-07T19:05:02.436Z,46.40
2018-05-07T19:07:30.745Z,46.70
2018-05-07T19:09:58.888Z,46.80
2018-05-07T19:12:26.478Z,46.90
2018-05-07T19:14:54.226Z,47.00
2018-05-07T19:17:21.815Z,47.10
2018-05-07T19:19:49.594Z,47.30
2018-05-07T19:22:19.525Z,47.50
2018-05-07T19:24:47.357Z,47.50
2018-05-07T19:27:15.090Z,47.40
2018-05-07T19:29:43.421Z,47.50
2018-05-07T19:32:11.143Z,47.70
2018-05-07T19:34:39.793Z,47.80
2018-05-07T19:37:07.987Z,47.90
2018-05-07T19:39:35.635Z,48.20
2018-05-07T19:42:03.206Z,48.50
2018-05-07T19:44:31.511Z,48.80
2018-05-07T19:46:59.166Z,49.00
2018-05-07T19:49:26.791Z,49.30
2018-05-07T19:51:55.055Z,49.60
2018-05-07T19:54:23.189Z,49.80
2018-05-07T19:56:50.848Z,50.20
2018-05-07T19:59:18.696Z,50.30
2018-05-07T20:01:46.381Z,50.60
2018-05-07T20:04:15.323Z,50.90
2018-05-07T20:06:43.620Z,51.00
2018-05-07T20:09:12.214Z,51.10
2018-05-07T20:11:39.745Z,51.50
2018-05-07T20:14:07.395Z,51.60
2018-05-07T20:16:35.478Z,51.60
2018-05-07T20:19:04.423Z,52.00
2018-05-07T20:21:32.172Z,52.00
2018-05-07T20:24:00.370Z,52.20
2018-05-07T20:26:28.450Z,52.50
2018-05-07T20:28:56.776Z,53.20
2018-05-07T20:31:24.341Z,52.70
2018-05-07T20:33:52.255Z,52.80
2018-05-07T20:36:20.577Z,52.90
2018-05-07T20:38:49.317Z,53.00
2018-05-07T20:41:18.436Z,53.10
2018-05-07T20:43:46.375Z,53.30
2018-05-07T20:46:15.279Z,53.60
2018-05-07T20:48:43.639Z,53.70
2018-05-07T20:51:11.324Z,53.70
2018-05-07T20:53:38.946Z,53.90
2018-05-07T20:56:06.521Z,54.00
2018-05-07T20:58:34.973Z,54.20
2018-05-07T21:01:02.518Z,54.40
2018-05-07T21:03:30.306Z,54.50
2018-05-07T21:05:57.864Z,54.60
2018-05-07T21:08:26.321Z,54.60
2018-05-07T21:10:54.607Z,54.80
2018-05-07T21:13:22.425Z,54.80
2018-05-07T21:15:51.279Z,55.00
2018-05-07T21:18:19.215Z,55.00
2018-05-07T21:20:46.843Z,55.20
2018-05-07T21:23:16.142Z,55.20
2018-05-07T21:25:49.171Z,55.20
2018-05-07T21:28:17.400Z,55.30
2018-05-07T21:30:45.757Z,55.40
2018-05-07T21:33:13.408Z,55.50
2018-05-07T21:35:43.134Z,55.70
2018-05-07T21:38:10.862Z,55.80
2018-05-07T21:40:39.131Z,56.20
2018-05-07T21:43:07.417Z,56.20
2018-05-07T21:45:35.127Z,56.20
2018-05-07T21:48:04.020Z,56.30
2018-05-07T21:50:31.662Z,56.50
2018-05-07T21:52:59.956Z,56.30
2018-05-07T21:55:27.812Z,56.40
2018-05-07T21:57:55.627Z,56.50
2018-05-07T22:00:23.346Z,57.40
2018-05-07T22:02:51.662Z,57.30
2018-05-07T22:05:19.385Z,57.30
2018-05-07T22:07:47.780Z,57.40
2018-05-07T22:10:18.308Z,57.40
2018-05-07T22:12:46.357Z,57.50
2018-05-07T22:15:13.923Z,57.70
2018-05-07T22:17:41.511Z,57.80
2018-05-07T22:20:10.920Z,58.00
2018-05-07T22:22:38.991Z,58.20
2018-05-07T22:25:06.774Z,58.40
2018-05-07T22:27:35.094Z,58.60
2018-05-07T22:30:02.869Z,58.60
2018-05-07T22:32:30.385Z,59.00
2018-05-07T22:34:58.459Z,59.10
2018-05-07T22:37:26.764Z,59.40
2018-05-07T22:39:54.299Z,59.30
2018-05-07T22:42:21.841Z,59.30
2018-05-07T22:44:49.391Z,59.50
2018-05-07T22:47:16.907Z,59.50
2018-05-07T22:49:45.343Z,59.70
2018-05-07T22:52:12.923Z,59.70
2018-05-07T22:54:40.554Z,60.00
2018-05-07T22:57:08.628Z,60.10
2018-05-07T22:59:36.126Z,60.10
2018-05-07T23:02:05.141Z,60.20
2018-05-07T23:04:32.747Z,60.50
2018-05-07T23:07:00.256Z,60.60
2018-05-07T23:09:29.216Z,60.70
2018-05-07T23:11:58.646Z,61.00
2018-05-07T23:14:26.317Z,61.10
2018-05-07T23:16:54.561Z,61.10
2018-05-07T23:19:22.106Z,61.60
2018-05-07T23:21:49.667Z,61.50
2018-05-07T23:24:17.193Z,61.60
2018-05-07T23:26:44.708Z,61.90
2018-05-07T23:29:13.090Z,62.10
2018-05-07T23:31:41.535Z,62.10
2018-05-07T23:34:09.105Z,62.60
2018-05-07T23:36:36.641Z,62.80
2018-05-07T23:39:04.258Z,63.10
2018-05-07T23:41:32.444Z,63.40
2018-05-07T23:44:00.560Z,63.60
2018-05-07T23:46:28.104Z,64.00
2018-05-07T23:48:55.668Z,64.10
2018-05-07T23:51:23.184Z,64.30
2018-05-07T23:53:52.215Z,64.80
2018-05-07T23:56:20.781Z,65.00
2018-05-07T23:58:48.367Z,65.10
